sensor_id;sensor_type;location;lat;lon;timestamp;pressure;altitude;pressure_sealevel;temperature;humidity
34658;BME280;20865;43.312;27.152;2023-03-25T00:00:29;100197.91;;;15.73;40.81
34658;BME280;20865;43.312;27.152;2023-03-25T00:02:57;100189.17;;;15.59;41.22
34658;BME280;20865;43.312;27.152;2023-03-25T00:05:24;100188.31;;;15.41;41.91
34658;BME280;20865;43.312;27.152;2023-03-25T00:07:51;100181.48;;;15.25;42.21
34658;BME280;20865;43.312;27.152;2023-03-25T00:10:19;100194.38;;;15.19;42.28
34658;BME280;20865;43.312;27.152;2023-03-25T00:12:48;100183.05;;;15.12;42.06
34658;BME280;20865;43.312;27.152;2023-03-25T00:15:14;100182.43;;;15.07;42.34
34658;BME280;20865;43.312;27.152;2023-03-25T00:17:42;100180.84;;;15.03;42.74
34658;BME280;20865;43.312;27.152;2023-03-25T00:20:09;100173.31;;;15.01;42.91
34658;BME280;20865;43.312;27.152;2023-03-25T00:22:38;100168.09;;;14.98;43.14
34658;BME280;20865;43.312;27.152;2023-03-25T00:25:10;100165.97;;;14.96;42.75
34658;BME280;20865;43.312;27.152;2023-03-25T00:27:38;100158.91;;;14.93;42.38
34658;BME280;20865;43.312;27.152;2023-03-25T00:30:05;100157.23;;;14.91;42.46
34658;BME280;20865;43.312;27.152;2023-03-25T00:32:33;100149.95;;;14.84;42.46
34658;BME280;20865;43.312;27.152;2023-03-25T00:35:01;100151.77;;;14.84;42.72
34658;BME280;20865;43.312;27.152;2023-03-25T00:37:27;100147.50;;;14.80;42.27
34658;BME280;20865;43.312;27.152;2023-03-25T00:39:55;100151.77;;;14.84;42.44
34658;BME280;20865;43.312;27.152;2023-03-25T00:42:21;100144.48;;;14.77;42.82
34658;BME280;20865;43.312;27.152;2023-03-25T00:44:50;100142.27;;;14.76;42.80
34658;BME280;20865;43.312;27.152;2023-03-25T00:47:18;100129.22;;;14.77;42.88
34658;BME280;20865;43.312;27.152;2023-03-25T00:49:47;100133.66;;;14.87;42.86
34658;BME280;20865;43.312;27.152;2023-03-25T00:52:14;100133.84;;;14.93;42.56
34658;BME280;20865;43.312;27.152;2023-03-25T00:54:43;100126.08;;;14.87;42.17
34658;BME280;20865;43.312;27.152;2023-03-25T00:57:10;100122.67;;;14.83;42.00
34658;BME280;20865;43.312;27.152;2023-03-25T00:59:38;100112.21;;;14.77;41.78
34658;BME280;20865;43.312;27.152;2023-03-25T01:02:07;100116.02;;;14.73;42.16
34658;BME280;20865;43.312;27.152;2023-03-25T01:04:35;100111.11;;;14.72;42.29
34658;BME280;20865;43.312;27.152;2023-03-25T01:07:03;100105.94;;;14.68;42.26
34658;BME280;20865;43.312;27.152;2023-03-25T01:09:30;100104.21;;;14.67;41.90
34658;BME280;20865;43.312;27.152;2023-03-25T01:11:57;100095.13;;;14.69;42.82
34658;BME280;20865;43.312;27.152;2023-03-25T01:14:24;100101.55;;;14.75;42.78
34658;BME280;20865;43.312;27.152;2023-03-25T01:16:52;100101.70;;;14.72;42.45
34658;BME280;20865;43.312;27.152;2023-03-25T01:19:19;100100.98;;;14.77;41.94
34658;BME280;20865;43.312;27.152;2023-03-25T01:21:47;100106.51;;;14.74;42.28
34658;BME280;20865;43.312;27.152;2023-03-25T01:24:14;100109.44;;;14.70;42.83
34658;BME280;20865;43.312;27.152;2023-03-25T01:26:43;100107.14;;;14.71;43.23
34658;BME280;20865;43.312;27.152;2023-03-25T01:29:15;100109.83;;;14.71;43.22
34658;BME280;20865;43.312;27.152;2023-03-25T01:31:38;100108.96;;;14.70;43.15
34658;BME280;20865;43.312;27.152;2023-03-25T01:34:06;100106.36;;;14.69;42.98
34658;BME280;20865;43.312;27.152;2023-03-25T01:36:33;100107.05;;;14.64;43.17
34658;BME280;20865;43.312;27.152;2023-03-25T01:39:02;100103.73;;;14.67;43.01
34658;BME280;20865;43.312;27.152;2023-03-25T01:41:30;100104.06;;;14.70;42.94
34658;BME280;20865;43.312;27.152;2023-03-25T01:44:07;100103.10;;;14.71;42.94
34658;BME280;20865;43.312;27.152;2023-03-25T01:46:36;100101.13;;;14.74;42.75
34658;BME280;20865;43.312;27.152;2023-03-25T01:49:05;100099.97;;;14.71;42.92
34658;BME280;20865;43.312;27.152;2023-03-25T01:51:37;100099.07;;;14.71;42.90
34658;BME280;20865;43.312;27.152;2023-03-25T01:54:04;100094.23;;;14.60;42.88
34658;BME280;20865;43.312;27.152;2023-03-25T01:56:35;100083.66;;;14.66;42.54
34658;BME280;20865;43.312;27.152;2023-03-25T01:59:02;100078.91;;;14.62;42.54
34658;BME280;20865;43.312;27.152;2023-03-25T02:01:31;100078.67;;;14.67;42.50
34658;BME280;20865;43.312;27.152;2023-03-25T02:03:59;100071.09;;;14.58;42.88
34658;BME280;20865;43.312;27.152;2023-03-25T02:09:04;100063.23;;;14.53;43.14
34658;BME280;20865;43.312;27.152;2023-03-25T02:11:33;100061.20;;;14.58;43.18
34658;BME280;20865;43.312;27.152;2023-03-25T02:14:05;100063.47;;;14.57;42.73
34658;BME280;20865;43.312;27.152;2023-03-25T02:16:33;100061.05;;;14.61;42.68
34658;BME280;20865;43.312;27.152;2023-03-25T02:24:22;100061.59;;;14.50;43.67
34658;BME280;20865;43.312;27.152;2023-03-25T02:26:59;100046.18;;;14.54;43.59
34658;BME280;20865;43.312;27.152;2023-03-25T02:29:32;100039.19;;;14.50;44.04
34658;BME280;20865;43.312;27.152;2023-03-25T02:37:17;100022.78;;;14.65;43.90
34658;BME280;20865;43.312;27.152;2023-03-25T02:39:48;100020.55;;;14.64;43.37
34658;BME280;20865;43.312;27.152;2023-03-25T02:42:19;100016.98;;;14.64;42.66
34658;BME280;20865;43.312;27.152;2023-03-25T02:47:32;100013.20;;;14.59;41.49
34658;BME280;20865;43.312;27.152;2023-03-25T02:50:04;100014.94;;;14.51;42.43
34658;BME280;20865;43.312;27.152;2023-03-25T02:52:30;100014.73;;;14.46;43.57
34658;BME280;20865;43.312;27.152;2023-03-25T02:54:58;100010.47;;;14.33;44.30
34658;BME280;20865;43.312;27.152;2023-03-25T02:57:29;100015.98;;;14.39;44.29
34658;BME280;20865;43.312;27.152;2023-03-25T03:00:02;100002.94;;;14.40;43.51
34658;BME280;20865;43.312;27.152;2023-03-25T03:02:27;100016.38;;;14.31;43.00
34658;BME280;20865;43.312;27.152;2023-03-25T03:04:56;100011.91;;;14.40;42.64
34658;BME280;20865;43.312;27.152;2023-03-25T03:07:32;100012.89;;;14.20;42.75
34658;BME280;20865;43.312;27.152;2023-03-25T03:09:59;100013.13;;;14.16;43.19
34658;BME280;20865;43.312;27.152;2023-03-25T03:15:12;100020.95;;;14.01;43.08
34658;BME280;20865;43.312;27.152;2023-03-25T03:17:41;100021.42;;;13.92;43.04
34658;BME280;20865;43.312;27.152;2023-03-25T03:22:56;100017.83;;;13.83;42.63
34658;BME280;20865;43.312;27.152;2023-03-25T03:25:31;100015.00;;;13.86;42.71
34658;BME280;20865;43.312;27.152;2023-03-25T03:28:02;100012.69;;;13.78;43.13
34658;BME280;20865;43.312;27.152;2023-03-25T03:30:39;100006.73;;;13.72;42.93
34658;BME280;20865;43.312;27.152;2023-03-25T03:35:42;100003.63;;;13.81;42.68
34658;BME280;20865;43.312;27.152;2023-03-25T03:38:07;100008.80;;;13.75;42.76
34658;BME280;20865;43.312;27.152;2023-03-25T03:40:48;100009.95;;;13.70;42.75
34658;BME280;20865;43.312;27.152;2023-03-25T03:43:22;100020.78;;;13.68;43.15
34658;BME280;20865;43.312;27.152;2023-03-25T03:45:46;100018.48;;;13.69;43.02
34658;BME280;20865;43.312;27.152;2023-03-25T03:48:16;100023.13;;;13.66;42.41
34658;BME280;20865;43.312;27.152;2023-03-25T03:50:59;100028.63;;;13.63;41.91
34658;BME280;20865;43.312;27.152;2023-03-25T03:53:26;100022.73;;;13.65;41.94
34658;BME280;20865;43.312;27.152;2023-03-25T03:55:58;100016.47;;;13.45;42.02
34658;BME280;20865;43.312;27.152;2023-03-25T03:58:28;100021.34;;;13.56;41.94
34658;BME280;20865;43.312;27.152;2023-03-25T04:03:29;100020.55;;;13.54;42.09
34658;BME280;20865;43.312;27.152;2023-03-25T04:06:02;100022.52;;;13.50;42.19
34658;BME280;20865;43.312;27.152;2023-03-25T04:08:33;100017.08;;;13.42;42.20
34658;BME280;20865;43.312;27.152;2023-03-25T04:11:01;100011.48;;;13.27;42.05
34658;BME280;20865;43.312;27.152;2023-03-25T04:13:31;100003.30;;;13.10;42.20
34658;BME280;20865;43.312;27.152;2023-03-25T04:15:59;99995.98;;;13.14;41.96
34658;BME280;20865;43.312;27.152;2023-03-25T04:18:26;100000.84;;;12.95;42.43
34658;BME280;20865;43.312;27.152;2023-03-25T04:20:56;99993.93;;;12.90;42.64
34658;BME280;20865;43.312;27.152;2023-03-25T04:23:24;99998.64;;;12.84;43.05
34658;BME280;20865;43.312;27.152;2023-03-25T04:25:52;99998.50;;;12.87;43.50
34658;BME280;20865;43.312;27.152;2023-03-25T04:28:19;99994.48;;;12.87;43.32
34658;BME280;20865;43.312;27.152;2023-03-25T04:30:48;99997.55;;;13.09;42.86
34658;BME280;20865;43.312;27.152;2023-03-25T04:33:16;99996.60;;;13.00;42.70
34658;BME280;20865;43.312;27.152;2023-03-25T04:35:45;99989.90;;;13.00;42.51
34658;BME280;20865;43.312;27.152;2023-03-25T04:38:17;99983.32;;;13.07;42.33
34658;BME280;20865;43.312;27.152;2023-03-25T04:40:43;99981.80;;;13.11;42.14
34658;BME280;20865;43.312;27.152;2023-03-25T04:43:15;99985.94;;;13.19;42.22
34658;BME280;20865;43.312;27.152;2023-03-25T04:45:42;99994.81;;;13.50;42.12
34658;BME280;20865;43.312;27.152;2023-03-25T04:48:15;100003.92;;;14.02;41.43
34658;BME280;20865;43.312;27.152;2023-03-25T04:50:42;99999.22;;;14.61;40.17
34658;BME280;20865;43.312;27.152;2023-03-25T04:53:08;100006.19;;;15.24;38.63
34658;BME280;20865;43.312;27.152;2023-03-25T04:55:35;99998.22;;;15.63;37.81
34658;BME280;20865;43.312;27.152;2023-03-25T04:58:04;99987.79;;;15.82;37.69
34658;BME280;20865;43.312;27.152;2023-03-25T05:00:32;99984.41;;;15.94;37.63
34658;BME280;20865;43.312;27.152;2023-03-25T05:02:58;99975.61;;;16.06;37.68
34658;BME280;20865;43.312;27.152;2023-03-25T05:05:26;99976.13;;;16.13;37.92
34658;BME280;20865;43.312;27.152;2023-03-25T05:07:53;99988.39;;;16.18;38.17
34658;BME280;20865;43.312;27.152;2023-03-25T05:10:23;99997.44;;;16.25;38.47
34658;BME280;20865;43.312;27.152;2023-03-25T05:12:56;100004.37;;;16.44;38.64
34658;BME280;20865;43.312;27.152;2023-03-25T05:15:19;100018.89;;;16.65;38.76
34658;BME280;20865;43.312;27.152;2023-03-25T05:17:46;100020.44;;;16.85;38.63
34658;BME280;20865;43.312;27.152;2023-03-25T05:20:13;100016.61;;;17.03;38.54
34658;BME280;20865;43.312;27.152;2023-03-25T05:22:40;100016.55;;;17.19;38.17
34658;BME280;20865;43.312;27.152;2023-03-25T05:25:08;100012.77;;;17.43;37.75
34658;BME280;20865;43.312;27.152;2023-03-25T05:27:35;100010.27;;;17.69;37.60
34658;BME280;20865;43.312;27.152;2023-03-25T05:30:03;100010.34;;;17.89;37.46
34658;BME280;20865;43.312;27.152;2023-03-25T05:32:30;100011.38;;;18.07;37.41
34658;BME280;20865;43.312;27.152;2023-03-25T05:34:58;100017.70;;;18.55;36.71
34658;BME280;20865;43.312;27.152;2023-03-25T05:37:28;100010.02;;;19.01;36.31
34658;BME280;20865;43.312;27.152;2023-03-25T05:39:55;100014.50;;;19.21;36.11
34658;BME280;20865;43.312;27.152;2023-03-25T05:42:22;100009.22;;;19.32;36.15
34658;BME280;20865;43.312;27.152;2023-03-25T05:44:52;100005.03;;;19.34;36.43
34658;BME280;20865;43.312;27.152;2023-03-25T05:47:25;99997.86;;;19.45;36.49
34658;BME280;20865;43.312;27.152;2023-03-25T05:49:51;100008.17;;;19.53;35.95
34658;BME280;20865;43.312;27.152;2023-03-25T05:52:19;100002.20;;;19.61;36.21
34658;BME280;20865;43.312;27.152;2023-03-25T05:54:47;100011.58;;;19.93;35.62
34658;BME280;20865;43.312;27.152;2023-03-25T05:57:15;100005.50;;;19.84;35.35
34658;BME280;20865;43.312;27.152;2023-03-25T05:59:42;100002.52;;;20.00;35.16
34658;BME280;20865;43.312;27.152;2023-03-25T06:02:12;100002.80;;;20.08;34.98
34658;BME280;20865;43.312;27.152;2023-03-25T06:04:40;100004.56;;;20.52;34.78
34658;BME280;20865;43.312;27.152;2023-03-25T06:07:07;100001.34;;;20.87;34.34
34658;BME280;20865;43.312;27.152;2023-03-25T06:09:37;99994.53;;;21.28;33.38
34658;BME280;20865;43.312;27.152;2023-03-25T06:12:05;99997.91;;;21.49;33.49
34658;BME280;20865;43.312;27.152;2023-03-25T06:14:32;100004.95;;;21.57;32.77
34658;BME280;20865;43.312;27.152;2023-03-25T06:17:00;99997.64;;;21.69;32.82
34658;BME280;20865;43.312;27.152;2023-03-25T06:19:27;99996.27;;;21.85;32.94
34658;BME280;20865;43.312;27.152;2023-03-25T06:21:54;99977.72;;;22.02;32.73
34658;BME280;20865;43.312;27.152;2023-03-25T06:24:21;99971.02;;;22.06;33.41
34658;BME280;20865;43.312;27.152;2023-03-25T06:26:47;99974.50;;;22.08;33.52
34658;BME280;20865;43.312;27.152;2023-03-25T06:29:14;99974.44;;;22.36;33.91
34658;BME280;20865;43.312;27.152;2023-03-25T06:31:41;99982.15;;;22.52;34.16
34658;BME280;20865;43.312;27.152;2023-03-25T06:34:08;99985.92;;;22.66;33.29
34658;BME280;20865;43.312;27.152;2023-03-25T06:36:35;99987.80;;;22.87;33.39
34658;BME280;20865;43.312;27.152;2023-03-25T06:39:02;99989.00;;;23.20;33.03
34658;BME280;20865;43.312;27.152;2023-03-25T06:41:30;99988.73;;;23.23;32.64
34658;BME280;20865;43.312;27.152;2023-03-25T06:43:58;99996.46;;;23.34;32.25
34658;BME280;20865;43.312;27.152;2023-03-25T06:46:25;99996.41;;;23.39;32.00
34658;BME280;20865;43.312;27.152;2023-03-25T06:48:52;100003.92;;;23.47;31.94
34658;BME280;20865;43.312;27.152;2023-03-25T06:51:19;99998.86;;;23.27;32.40
34658;BME280;20865;43.312;27.152;2023-03-25T06:53:47;99991.89;;;23.13;32.79
34658;BME280;20865;43.312;27.152;2023-03-25T06:56:14;100000.90;;;23.19;32.89
34658;BME280;20865;43.312;27.152;2023-03-25T06:58:41;100001.59;;;23.27;32.67
34658;BME280;20865;43.312;27.152;2023-03-25T07:01:08;99993.53;;;23.25;32.60
34658;BME280;20865;43.312;27.152;2023-03-25T07:03:35;99997.91;;;23.22;31.94
34658;BME280;20865;43.312;27.152;2023-03-25T07:06:02;99993.83;;;23.22;32.37
34658;BME280;20865;43.312;27.152;2023-03-25T07:08:30;99998.23;;;23.44;32.27
34658;BME280;20865;43.312;27.152;2023-03-25T07:11:00;99990.38;;;23.51;32.67
34658;BME280;20865;43.312;27.152;2023-03-25T07:13:27;99993.37;;;23.48;32.04
34658;BME280;20865;43.312;27.152;2023-03-25T07:15:56;99987.91;;;23.69;32.50
34658;BME280;20865;43.312;27.152;2023-03-25T07:18:23;99986.43;;;23.80;32.61
34658;BME280;20865;43.312;27.152;2023-03-25T07:20:49;99981.91;;;23.85;31.89
34658;BME280;20865;43.312;27.152;2023-03-25T07:23:16;99981.62;;;24.13;32.74
34658;BME280;20865;43.312;27.152;2023-03-25T07:25:44;99987.56;;;24.28;32.50
34658;BME280;20865;43.312;27.152;2023-03-25T07:28:10;99984.34;;;24.38;31.87
34658;BME280;20865;43.312;27.152;2023-03-25T07:30:37;99986.91;;;24.55;31.67
34658;BME280;20865;43.312;27.152;2023-03-25T07:33:04;99979.13;;;24.69;31.50
34658;BME280;20865;43.312;27.152;2023-03-25T07:35:31;99973.52;;;24.61;31.52
34658;BME280;20865;43.312;27.152;2023-03-25T07:37:58;99978.50;;;24.62;31.16
34658;BME280;20865;43.312;27.152;2023-03-25T07:40:24;99982.22;;;24.70;31.26
34658;BME280;20865;43.312;27.152;2023-03-25T07:42:51;99983.14;;;24.75;30.57
34658;BME280;20865;43.312;27.152;2023-03-25T07:45:18;99981.03;;;24.92;31.21
34658;BME280;20865;43.312;27.152;2023-03-25T07:47:45;99980.69;;;24.72;30.60
34658;BME280;20865;43.312;27.152;2023-03-25T07:50:13;99968.23;;;24.93;31.87
34658;BME280;20865;43.312;27.152;2023-03-25T07:52:40;99961.76;;;25.13;30.91
34658;BME280;20865;43.312;27.152;2023-03-25T07:55:08;99954.16;;;24.98;30.69
34658;BME280;20865;43.312;27.152;2023-03-25T07:57:35;99953.48;;;25.19;31.41
34658;BME280;20865;43.312;27.152;2023-03-25T08:00:02;99953.59;;;25.27;31.07
34658;BME280;20865;43.312;27.152;2023-03-25T08:02:30;99945.27;;;25.29;30.53
34658;BME280;20865;43.312;27.152;2023-03-25T08:04:57;99948.82;;;25.39;30.02
34658;BME280;20865;43.312;27.152;2023-03-25T08:07:24;99947.70;;;25.32;30.78
34658;BME280;20865;43.312;27.152;2023-03-25T08:09:53;99944.75;;;25.66;29.95
34658;BME280;20865;43.312;27.152;2023-03-25T08:12:20;99945.69;;;26.17;29.77
34658;BME280;20865;43.312;27.152;2023-03-25T08:14:47;99943.06;;;26.29;29.07
34658;BME280;20865;43.312;27.152;2023-03-25T08:17:13;99941.24;;;26.16;29.21
34658;BME280;20865;43.312;27.152;2023-03-25T08:19:40;99931.16;;;26.34;29.58
34658;BME280;20865;43.312;27.152;2023-03-25T08:22:07;99933.17;;;26.14;30.04
34658;BME280;20865;43.312;27.152;2023-03-25T08:24:34;99932.21;;;26.19;30.38
34658;BME280;20865;43.312;27.152;2023-03-25T08:27:00;99932.77;;;26.23;29.26
34658;BME280;20865;43.312;27.152;2023-03-25T08:29:27;99926.73;;;26.37;29.74
34658;BME280;20865;43.312;27.152;2023-03-25T08:31:54;99920.23;;;26.38;29.74
34658;BME280;20865;43.312;27.152;2023-03-25T08:34:21;99921.56;;;26.48;29.66
34658;BME280;20865;43.312;27.152;2023-03-25T08:36:48;99918.83;;;26.34;28.74
34658;BME280;20865;43.312;27.152;2023-03-25T08:39:15;99915.89;;;26.31;28.67
34658;BME280;20865;43.312;27.152;2023-03-25T08:41:43;99916.03;;;26.26;28.92
34658;BME280;20865;43.312;27.152;2023-03-25T08:44:11;99910.66;;;26.38;28.97
34658;BME280;20865;43.312;27.152;2023-03-25T08:46:38;99916.52;;;26.57;29.48
34658;BME280;20865;43.312;27.152;2023-03-25T08:49:05;99909.23;;;26.70;28.73
34658;BME280;20865;43.312;27.152;2023-03-25T08:51:31;99910.78;;;26.94;28.80
34658;BME280;20865;43.312;27.152;2023-03-25T08:53:58;99911.18;;;26.99;28.32
34658;BME280;20865;43.312;27.152;2023-03-25T08:56:25;99907.27;;;26.80;27.86
34658;BME280;20865;43.312;27.152;2023-03-25T08:58:52;99898.59;;;26.67;28.10
34658;BME280;20865;43.312;27.152;2023-03-25T09:01:19;99908.73;;;26.92;28.63
34658;BME280;20865;43.312;27.152;2023-03-25T09:03:46;99904.35;;;27.03;28.77
34658;BME280;20865;43.312;27.152;2023-03-25T09:06:13;99895.54;;;27.14;28.28
34658;BME280;20865;43.312;27.152;2023-03-25T09:08:40;99893.03;;;27.24;27.85
34658;BME280;20865;43.312;27.152;2023-03-25T09:11:07;99887.73;;;27.27;27.79
34658;BME280;20865;43.312;27.152;2023-03-25T09:13:34;99883.96;;;27.28;27.99
34658;BME280;20865;43.312;27.152;2023-03-25T09:16:00;99886.72;;;27.32;28.85
34658;BME280;20865;43.312;27.152;2023-03-25T09:18:28;99876.16;;;27.45;27.93
34658;BME280;20865;43.312;27.152;2023-03-25T09:20:59;99877.41;;;27.55;28.09
34658;BME280;20865;43.312;27.152;2023-03-25T09:23:26;99875.91;;;27.69;28.44
34658;BME280;20865;43.312;27.152;2023-03-25T09:25:55;99876.92;;;27.72;27.93
34658;BME280;20865;43.312;27.152;2023-03-25T09:28:21;99874.96;;;27.86;27.81
34658;BME280;20865;43.312;27.152;2023-03-25T09:30:48;99869.81;;;27.99;28.00
34658;BME280;20865;43.312;27.152;2023-03-25T09:33:15;99870.89;;;28.11;27.87
34658;BME280;20865;43.312;27.152;2023-03-25T09:35:43;99864.70;;;28.17;26.75
34658;BME280;20865;43.312;27.152;2023-03-25T09:38:11;99869.19;;;28.18;26.78
34658;BME280;20865;43.312;27.152;2023-03-25T09:40:41;99868.84;;;28.21;26.91
34658;BME280;20865;43.312;27.152;2023-03-25T09:45:50;99858.88;;;28.16;27.55
34658;BME280;20865;43.312;27.152;2023-03-25T09:48:29;99860.94;;;28.34;27.61
34658;BME280;20865;43.312;27.152;2023-03-25T09:50:59;99853.41;;;28.48;26.34
34658;BME280;20865;43.312;27.152;2023-03-25T09:53:31;99848.27;;;28.54;26.03
34658;BME280;20865;43.312;27.152;2023-03-25T09:55:57;99840.36;;;28.59;26.41
34658;BME280;20865;43.312;27.152;2023-03-25T10:00:55;99839.00;;;28.63;26.65
34658;BME280;20865;43.312;27.152;2023-03-25T10:03:30;99835.36;;;28.75;25.92
34658;BME280;20865;43.312;27.152;2023-03-25T10:06:10;99818.34;;;28.79;25.96
34658;BME280;20865;43.312;27.152;2023-03-25T10:08:43;99820.41;;;28.81;25.70
34658;BME280;20865;43.312;27.152;2023-03-25T10:13:57;99810.97;;;28.76;25.66
34658;BME280;20865;43.312;27.152;2023-03-25T10:19:14;99803.73;;;28.83;26.67
34658;BME280;20865;43.312;27.152;2023-03-25T10:24:19;99798.55;;;28.96;25.34
34658;BME280;20865;43.312;27.152;2023-03-25T10:27:04;99793.56;;;29.04;25.53
34658;BME280;20865;43.312;27.152;2023-03-25T10:32:10;99779.36;;;29.31;26.06
34658;BME280;20865;43.312;27.152;2023-03-25T10:34:36;99772.48;;;29.31;26.30
34658;BME280;20865;43.312;27.152;2023-03-25T10:37:04;99771.02;;;29.48;25.92
34658;BME280;20865;43.312;27.152;2023-03-25T10:39:32;99764.94;;;29.56;25.01
34658;BME280;20865;43.312;27.152;2023-03-25T10:42:44;99756.87;;;29.55;24.75
34658;BME280;20865;43.312;27.152;2023-03-25T10:44:33;99759.63;;;29.59;24.77
34658;BME280;20865;43.312;27.152;2023-03-25T10:47:01;99747.18;;;29.71;25.24
34658;BME280;20865;43.312;27.152;2023-03-25T10:49:28;99742.98;;;29.79;25.17
34658;BME280;20865;43.312;27.152;2023-03-25T10:51:56;99736.17;;;29.71;24.49
34658;BME280;20865;43.312;27.152;2023-03-25T10:54:25;99729.58;;;29.76;25.18
34658;BME280;20865;43.312;27.152;2023-03-25T10:56:52;99721.25;;;29.84;26.67
34658;BME280;20865;43.312;27.152;2023-03-25T10:59:29;99714.72;;;30.04;25.42
34658;BME280;20865;43.312;27.152;2023-03-25T11:01:55;99713.27;;;30.12;25.42
34658;BME280;20865;43.312;27.152;2023-03-25T11:04:23;99709.91;;;30.25;25.38
34658;BME280;20865;43.312;27.152;2023-03-25T11:06:52;99694.44;;;30.24;22.45
34658;BME280;20865;43.312;27.152;2023-03-25T11:09:24;99698.31;;;30.30;23.22
34658;BME280;20865;43.312;27.152;2023-03-25T11:11:51;99695.50;;;30.19;23.60
34658;BME280;20865;43.312;27.152;2023-03-25T11:14:22;99692.05;;;30.21;24.54
34658;BME280;20865;43.312;27.152;2023-03-25T11:16:59;99692.02;;;30.40;25.10
34658;BME280;20865;43.312;27.152;2023-03-25T11:22:07;99686.17;;;30.54;22.58
34658;BME280;20865;43.312;27.152;2023-03-25T11:24:31;99670.08;;;30.47;22.11
34658;BME280;20865;43.312;27.152;2023-03-25T11:26:59;99669.12;;;30.40;22.39
34658;BME280;20865;43.312;27.152;2023-03-25T11:29:27;99658.46;;;30.41;21.57
34658;BME280;20865;43.312;27.152;2023-03-25T11:32:05;99662.48;;;30.49;22.09
34658;BME280;20865;43.312;27.152;2023-03-25T11:34:23;99663.91;;;30.59;23.43
34658;BME280;20865;43.312;27.152;2023-03-25T11:39:37;99660.39;;;30.66;21.37
34658;BME280;20865;43.312;27.152;2023-03-25T11:44:51;99648.64;;;30.97;22.37
34658;BME280;20865;43.312;27.152;2023-03-25T11:47:20;99645.41;;;30.94;21.30
34658;BME280;20865;43.312;27.152;2023-03-25T11:49:48;99637.61;;;30.97;20.59
34658;BME280;20865;43.312;27.152;2023-03-25T11:52:22;99638.58;;;30.90;21.94
34658;BME280;20865;43.312;27.152;2023-03-25T11:54:51;99634.03;;;30.93;22.23
34658;BME280;20865;43.312;27.152;2023-03-25T11:57:29;99639.69;;;30.95;22.95
34658;BME280;20865;43.312;27.152;2023-03-25T12:00:03;99631.73;;;30.96;22.18
34658;BME280;20865;43.312;27.152;2023-03-25T12:02:37;99626.22;;;30.96;22.17
34658;BME280;20865;43.312;27.152;2023-03-25T12:07:41;99621.22;;;31.11;22.73
34658;BME280;20865;43.312;27.152;2023-03-25T12:13:03;99614.05;;;31.16;23.05
34658;BME280;20865;43.312;27.152;2023-03-25T12:18:06;99602.69;;;31.04;23.42
34658;BME280;20865;43.312;27.152;2023-03-25T12:20:51;99598.63;;;31.00;23.30
34658;BME280;20865;43.312;27.152;2023-03-25T12:33:49;99587.13;;;30.97;23.37
34658;BME280;20865;43.312;27.152;2023-03-25T12:36:22;99587.76;;;30.88;21.82
34658;BME280;20865;43.312;27.152;2023-03-25T12:51:21;99551.23;;;30.75;23.41
34658;BME280;20865;43.312;27.152;2023-03-25T12:53:56;99556.75;;;30.75;23.04
34658;BME280;20865;43.312;27.152;2023-03-25T13:01:33;99538.33;;;30.61;23.06
34658;BME280;20865;43.312;27.152;2023-03-25T13:09:26;99521.41;;;30.64;22.82
34658;BME280;20865;43.312;27.152;2023-03-25T13:12:04;99523.59;;;30.69;22.78
34658;BME280;20865;43.312;27.152;2023-03-25T13:14:38;99516.64;;;30.73;22.45
34658;BME280;20865;43.312;27.152;2023-03-25T13:17:03;99520.14;;;30.81;22.42
34658;BME280;20865;43.312;27.152;2023-03-25T13:19:32;99514.84;;;30.80;22.73
34658;BME280;20865;43.312;27.152;2023-03-25T13:22:03;99505.45;;;30.85;21.93
34658;BME280;20865;43.312;27.152;2023-03-25T13:24:35;99505.34;;;30.82;22.70
34658;BME280;20865;43.312;27.152;2023-03-25T13:26:57;99507.31;;;30.63;22.62
34658;BME280;20865;43.312;27.152;2023-03-25T13:29:33;99507.69;;;30.60;22.79
34658;BME280;20865;43.312;27.152;2023-03-25T13:31:59;99510.20;;;30.55;23.03
34658;BME280;20865;43.312;27.152;2023-03-25T13:37:03;99503.80;;;30.54;23.13
34658;BME280;20865;43.312;27.152;2023-03-25T13:42:18;99504.29;;;30.32;23.90
34658;BME280;20865;43.312;27.152;2023-03-25T13:44:41;99502.83;;;30.26;23.45
34658;BME280;20865;43.312;27.152;2023-03-25T13:49:51;99502.97;;;30.28;23.45
34658;BME280;20865;43.312;27.152;2023-03-25T13:52:19;99497.47;;;30.28;23.26
34658;BME280;20865;43.312;27.152;2023-03-25T13:54:50;99502.56;;;30.21;23.07
34658;BME280;20865;43.312;27.152;2023-03-25T13:57:27;99505.10;;;30.07;22.98
34658;BME280;20865;43.312;27.152;2023-03-25T14:05:05;99506.00;;;29.74;23.11
34658;BME280;20865;43.312;27.152;2023-03-25T14:12:49;99504.72;;;29.81;22.46
34658;BME280;20865;43.312;27.152;2023-03-25T14:15:14;99506.78;;;29.68;22.60
34658;BME280;20865;43.312;27.152;2023-03-25T14:17:41;99498.74;;;29.77;21.49
34658;BME280;20865;43.312;27.152;2023-03-25T14:20:10;99498.67;;;29.85;21.57
34658;BME280;20865;43.312;27.152;2023-03-25T14:22:38;99495.07;;;29.85;22.49
34658;BME280;20865;43.312;27.152;2023-03-25T14:25:52;99494.34;;;29.72;21.97
34658;BME280;20865;43.312;27.152;2023-03-25T14:27:34;99496.41;;;29.70;22.41
34658;BME280;20865;43.312;27.152;2023-03-25T14:30:03;99499.47;;;29.75;22.09
34658;BME280;20865;43.312;27.152;2023-03-25T14:32:34;99492.25;;;29.55;22.08
34658;BME280;20865;43.312;27.152;2023-03-25T14:37:46;99490.33;;;29.03;22.19
34658;BME280;20865;43.312;27.152;2023-03-25T14:40:55;99489.20;;;28.89;22.21
34658;BME280;20865;43.312;27.152;2023-03-25T14:42:57;99497.20;;;28.80;23.37
34658;BME280;20865;43.312;27.152;2023-03-25T14:47:58;99489.81;;;29.04;23.92